JFK weather

John F Kennedy International Airport
New York, New York, United States

Public forecast

Using degrees Fahrenheit for public forecast. Weather courtesy of forecast.io.

Current aviation weather report (METAR) for John F Kennedy International Airport

Retrieved 2020/04/07 22:51 UTC (36 minutes ago):

KJFK 072251Z 16014KT 10SM FEW050 FEW090 FEW130 FEW180 BKN250 11/03 A2976 RMK AO2 SLP079 T01110028

Aviation forecast (TAF) for John F Kennedy International Airport

Retrieved 2020/04/07 18:29 UTC (5 hours ago):

TAF KJFK 071722Z 0718/0824 21008KT P6SM SCT080 FM072100 18012G18KT P6SM SCT080 FM080000 18010G16KT P6SM BKN080 FM080400 19007KT P6SM BKN080 FM080800 VRB04KT 5SM -RA BR OVC020 FM081300 30006KT P6SM BKN029 FM081400 34007KT P6SM BKN029 FM081700 01009G15KT P6SM BKN029 FM082000 05008KT P6SM BKN029 FM082300 08006KT P6SM BKN029